Wednesday, October 18, 2017, 6:06 PM EDT
Back to Local

KGON, Groton/new London Airport

Location: Groton, CT, United States Lat: 41.333
Local Time: 6:06 PM EDT (22:06 GMT) Lon: -72.05
Time Zone: US/Eastern Elev: 9 ft

Show me the last for .
Show Decoded

2017-10-18 16:56 METAR KGON 182056Z 25007KT 10SM CLR 19/09 A3024 RMK AO2 SLP239 T01890089 57003 =
2017-10-18 15:56 METAR KGON 181956Z COR 25009KT 7SM CLR 19/09 A3024 RMK AO2 SLP240 T01940094 =
2017-10-18 14:56 METAR KGON 181856Z 24010KT 10SM CLR 19/12 A3025 RMK AO2 SLP241 T01890117 =
2017-10-18 13:56 METAR KGON 181756Z 23012KT 10SM CLR 18/11 A3025 RMK AO2 SLP243 T01830111 10200
                 20117 58016 =
2017-10-18 12:56 METAR KGON 181656Z 22012KT 10SM CLR 18/11 A3027 RMK AO2 SLP251 T01830106 =
2017-10-18 11:56 METAR KGON 181556Z VRB03KT 10SM CLR 18/08 A3029 RMK AO2 SLP258 T01830083 =
2017-10-18 10:56 METAR KGON 181456Z 24005KT 10SM CLR 17/06 A3030 RMK AO2 SLP259 T01670061 50006 =
2017-10-18 09:56 METAR KGON 181356Z 26005KT 10SM CLR 15/05 A3030 RMK AO2 SLP261 T01500050 =
2017-10-18 08:56 METAR KGON 181256Z 00000KT 10SM CLR 14/04 A3030 RMK AO2 SLP259 T01390044 =
2017-10-18 07:56 METAR KGON 181156Z 28005KT 10SM CLR 12/04 A3028 RMK AO2 SLP252 T01170039 10122
                 20106 51012 =
2017-10-18 06:56 METAR KGON 181056Z 28005KT 10SM CLR 11/03 A3027 RMK AO2 SLP250 T01060028 =
2017-10-18 05:56 METAR KGON 180956Z AUTO 28011KT 10SM CLR 11/03 A3026 RMK AO2 SLP246 T01110028 =
2017-10-18 04:56 METAR KGON 180856Z AUTO 28008KT 10SM CLR 12/03 A3024 RMK AO2 SLP241 T01170033
                 55003 =
2017-10-18 03:56 METAR KGON 180756Z AUTO 28008KT 10SM CLR 12/04 A3023 RMK AO2 SLP237 T01170044 =
2017-10-18 02:56 METAR KGON 180656Z AUTO 27008KT 10SM CLR 12/05 A3024 RMK AO2 SLP240 T01220050 =
2017-10-18 01:56 METAR KGON 180556Z AUTO 28007KT 10SM CLR 12/06 A3025 RMK AO2 SLP245 T01220056
                 10133 20117 56006 =
2017-10-18 00:56 METAR KGON 180456Z AUTO 27007KT 10SM CLR 13/07 A3026 RMK AO2 SLP247 T01330067
                 401390022 =
2017-10-17 23:56 METAR KGON 180356Z AUTO 24011KT 10SM CLR 13/06 A3026 RMK AO2 SLP247 T01280061 =
2017-10-17 22:56 METAR KGON 180256Z AUTO 23012KT 10SM CLR 12/04 A3027 RMK AO2 SLP251 T01220044
                 50003 =
2017-10-17 21:56 METAR KGON 180156Z 23010KT 10SM CLR 12/04 A3028 RMK AO2 SLP251 T01220044 =
2017-10-17 20:56 METAR KGON 180056Z 23010KT 10SM CLR 12/03 A3027 RMK AO2 SLP250 T01220033 =
2017-10-17 19:56 METAR KGON 172356Z 22010KT 10SM CLR 12/03 A3026 RMK AO2 SLP248 T01170028 10139
                 20111 52008 =
2017-10-17 18:56 METAR KGON 172256Z 22009KT 10SM CLR 11/03 A3026 RMK AO2 SLP246 T01110028 =

Support USWX by starting your Amazon purchase here.